createdAt,value
2018-05-31T00:02:05.849Z,8.97
2018-05-31T00:04:39.652Z,9.27
2018-05-31T00:07:13.360Z,10.23
2018-05-31T00:09:46.857Z,8.60
2018-05-31T00:12:20.461Z,9.77
2018-05-31T00:14:54.159Z,9.33
2018-05-31T00:17:27.864Z,9.30
2018-05-31T00:20:01.714Z,8.93
2018-05-31T00:22:35.255Z,9.90
2018-05-31T00:25:08.824Z,8.57
2018-05-31T00:27:42.404Z,9.53
2018-05-31T00:30:16.251Z,9.00
2018-05-31T00:32:50.143Z,9.43
2018-05-31T00:35:23.942Z,9.40
2018-05-31T00:37:57.692Z,9.50
2018-05-31T00:40:31.420Z,10.03
2018-05-31T00:43:05.211Z,9.60
2018-05-31T00:45:39.004Z,8.67
2018-05-31T00:48:12.555Z,8.87
2018-05-31T00:50:46.305Z,9.10
2018-05-31T00:53:19.932Z,8.87
2018-05-31T00:56:05.568Z,9.97
2018-05-31T00:58:39.322Z,8.37
2018-05-31T01:01:12.963Z,8.73
2018-05-31T01:03:46.536Z,8.90
2018-05-31T01:06:20.328Z,8.10
2018-05-31T01:08:53.928Z,8.30
2018-05-31T01:11:27.728Z,8.33
2018-05-31T01:14:01.258Z,7.83
2018-05-31T01:16:34.935Z,8.13
2018-05-31T01:19:08.513Z,7.60
2018-05-31T01:21:42.258Z,9.17
2018-05-31T01:24:15.791Z,7.30
2018-05-31T01:26:49.558Z,8.30
2018-05-31T01:29:23.104Z,7.83
2018-05-31T01:31:56.717Z,8.00
2018-05-31T01:34:30.508Z,7.40
2018-05-31T01:37:04.200Z,7.53
2018-05-31T01:39:37.808Z,8.20
2018-05-31T01:42:11.472Z,7.87
2018-05-31T01:44:45.247Z,8.07
2018-05-31T01:47:19.068Z,7.83
2018-05-31T01:49:52.679Z,7.83
2018-05-31T01:52:26.313Z,7.23
2018-05-31T01:55:00.064Z,7.40
2018-05-31T01:57:33.635Z,7.37
2018-05-31T02:00:07.186Z,7.23
2018-05-31T02:02:40.969Z,7.93
2018-05-31T02:05:14.704Z,6.80
2018-05-31T02:07:48.304Z,6.83
2018-05-31T02:10:21.808Z,6.60
2018-05-31T02:12:55.403Z,7.00
2018-05-31T02:15:28.913Z,7.60
2018-05-31T02:18:02.528Z,6.47
2018-05-31T02:20:36.040Z,7.77
2018-05-31T02:23:09.886Z,7.67
2018-05-31T02:25:43.592Z,7.30
2018-05-31T02:28:17.372Z,6.80
2018-05-31T02:30:50.951Z,7.20
2018-05-31T02:33:24.699Z,7.70
2018-05-31T02:35:58.336Z,6.60
2018-05-31T02:38:32.101Z,7.43
2018-05-31T02:41:05.821Z,7.33
2018-05-31T02:43:39.565Z,6.50
2018-05-31T02:46:13.068Z,7.10
2018-05-31T02:48:46.858Z,6.33
2018-05-31T02:51:20.552Z,7.17
2018-05-31T02:53:54.341Z,7.47
2018-05-31T02:56:28.108Z,7.37
2018-05-31T02:59:01.784Z,7.90
2018-05-31T03:01:35.267Z,6.90
2018-05-31T03:04:08.859Z,8.00
2018-05-31T03:06:42.467Z,7.50
2018-05-31T03:09:16.096Z,6.73
2018-05-31T03:11:49.603Z,7.90
2018-05-31T03:14:23.368Z,7.93
2018-05-31T03:16:56.983Z,8.53
2018-05-31T03:19:30.575Z,10.80
2018-05-31T03:22:04.220Z,9.70
2018-05-31T03:24:38.012Z,8.57
2018-05-31T03:27:15.065Z,9.90
2018-05-31T03:29:48.680Z,10.30
2018-05-31T03:32:22.264Z,10.13
2018-05-31T03:34:55.812Z,10.80
2018-05-31T03:37:29.568Z,10.07
2018-05-31T03:40:03.215Z,10.50
2018-05-31T03:42:36.879Z,10.77
2018-05-31T03:45:10.600Z,10.30
2018-05-31T03:47:44.359Z,10.60
2018-05-31T03:50:17.911Z,10.83
2018-05-31T03:52:51.489Z,12.00
2018-05-31T03:55:25.131Z,10.13
2018-05-31T03:57:58.740Z,11.20
2018-05-31T04:00:32.264Z,11.40
2018-05-31T04:03:05.855Z,11.30
2018-05-31T04:05:39.444Z,11.03
2018-05-31T04:08:13.964Z,10.67
2018-05-31T04:10:47.552Z,11.40
2018-05-31T04:13:21.136Z,11.37
2018-05-31T04:15:54.871Z,11.43
2018-05-31T04:18:28.505Z,11.20
2018-05-31T04:21:02.532Z,11.17
2018-05-31T04:23:36.064Z,11.70
2018-05-31T04:26:09.881Z,11.73
2018-05-31T04:28:43.642Z,10.97
2018-05-31T04:31:17.458Z,11.23
2018-05-31T04:33:51.181Z,11.67
2018-05-31T04:36:24.836Z,11.03
2018-05-31T04:38:58.509Z,11.73
2018-05-31T04:41:32.312Z,10.50
2018-05-31T04:44:05.941Z,11.00
2018-05-31T04:46:39.708Z,11.20
2018-05-31T04:49:13.370Z,10.80
2018-05-31T04:51:47.176Z,10.20
2018-05-31T04:54:20.740Z,10.60
2018-05-31T04:56:54.621Z,10.20
2018-05-31T04:59:28.340Z,9.77
2018-05-31T05:02:02.124Z,9.73
2018-05-31T05:04:35.857Z,9.00
2018-05-31T05:07:09.552Z,9.83
2018-05-31T05:09:43.068Z,9.73
2018-05-31T05:12:16.673Z,8.63
2018-05-31T05:14:50.254Z,7.97
2018-05-31T05:17:24.085Z,7.93
2018-05-31T05:19:57.798Z,8.27
2018-05-31T05:22:31.377Z,7.83
2018-05-31T05:25:05.080Z,7.40
2018-05-31T05:27:38.889Z,6.90
2018-05-31T05:30:12.558Z,6.33
2018-05-31T05:32:46.304Z,6.13
2018-05-31T05:35:20.036Z,6.10
2018-05-31T05:37:53.817Z,5.47
2018-05-31T05:40:27.544Z,6.17
2018-05-31T05:43:01.253Z,4.77
2018-05-31T05:45:34.840Z,5.00
2018-05-31T05:48:08.649Z,4.60
2018-05-31T05:50:42.260Z,4.23
2018-05-31T05:53:16.007Z,5.07
2018-05-31T05:55:49.734Z,4.30
2018-05-31T05:58:23.439Z,4.60
2018-05-31T06:00:57.141Z,3.73
2018-05-31T06:03:30.845Z,3.80
2018-05-31T06:06:04.545Z,4.10
2018-05-31T06:08:38.363Z,3.80
2018-05-31T06:11:12.222Z,3.83
2018-05-31T06:13:45.921Z,3.87
2018-05-31T06:16:19.601Z,3.50
2018-05-31T06:18:53.259Z,3.97
2018-05-31T06:21:26.953Z,3.40
2018-05-31T06:24:00.588Z,3.97
2018-05-31T06:26:34.261Z,3.20
2018-05-31T06:29:08.072Z,3.27
2018-05-31T06:31:41.684Z,3.23
2018-05-31T06:34:15.296Z,2.93
2018-05-31T06:36:49.067Z,3.53
2018-05-31T06:39:22.745Z,3.10
2018-05-31T06:41:56.437Z,2.63
2018-05-31T06:44:30.016Z,2.77
2018-05-31T06:47:03.809Z,2.67
2018-05-31T06:49:37.525Z,3.03
2018-05-31T06:52:11.089Z,2.90
2018-05-31T06:54:44.818Z,2.90
2018-05-31T06:57:18.421Z,2.77
2018-05-31T06:59:52.137Z,2.53
2018-05-31T07:02:25.804Z,2.60
2018-05-31T07:04:59.457Z,3.57
2018-05-31T07:07:33.021Z,3.27
2018-05-31T07:10:06.745Z,2.90
2018-05-31T07:12:40.430Z,3.00
2018-05-31T07:15:14.034Z,2.70
2018-05-31T07:17:47.556Z,2.70
2018-05-31T07:20:21.220Z,2.87
2018-05-31T07:22:55.042Z,2.67
2018-05-31T07:25:28.773Z,2.73
2018-05-31T07:28:02.276Z,2.97
2018-05-31T07:30:35.865Z,2.60
2018-05-31T07:33:09.578Z,3.23
2018-05-31T07:35:43.283Z,2.40
2018-05-31T07:38:16.988Z,2.47
2018-05-31T07:40:50.564Z,2.80
2018-05-31T07:43:24.306Z,2.73
2018-05-31T07:45:57.997Z,2.27
2018-05-31T07:48:31.915Z,2.80
2018-05-31T07:51:05.508Z,2.73
2018-05-31T07:53:39.267Z,2.60
2018-05-31T07:56:12.901Z,2.57
2018-05-31T07:58:46.465Z,2.40
2018-05-31T08:01:20.225Z,2.80
2018-05-31T08:03:53.948Z,2.67
2018-05-31T08:06:27.656Z,2.57
2018-05-31T08:09:01.230Z,2.70
2018-05-31T08:11:34.961Z,2.90
2018-05-31T08:14:08.577Z,3.07
2018-05-31T08:16:42.309Z,2.97
2018-05-31T08:19:16.224Z,3.13
2018-05-31T08:21:49.865Z,2.90
2018-05-31T08:24:23.449Z,3.53
2018-05-31T08:26:57.161Z,3.00
2018-05-31T08:29:30.776Z,3.60
2018-05-31T08:32:04.332Z,3.50
2018-05-31T08:34:38.100Z,3.43
2018-05-31T08:37:11.800Z,3.87
2018-05-31T08:39:45.369Z,3.67
2018-05-31T08:42:19.044Z,3.77
2018-05-31T08:44:52.795Z,4.17
2018-05-31T08:47:27.264Z,4.23
2018-05-31T08:50:00.832Z,4.00
2018-05-31T08:52:34.536Z,4.20
2018-05-31T08:55:08.329Z,4.10
2018-05-31T08:57:41.840Z,4.10
2018-05-31T09:00:15.517Z,4.40
2018-05-31T09:02:49.224Z,4.20
2018-05-31T09:05:22.877Z,3.93
2018-05-31T09:07:56.807Z,3.90
2018-05-31T09:10:30.460Z,3.90
2018-05-31T09:13:04.210Z,4.50
2018-05-31T09:15:38.077Z,4.07
2018-05-31T09:18:11.685Z,4.53
2018-05-31T09:20:45.278Z,3.90
2018-05-31T09:23:18.986Z,3.77
2018-05-31T09:25:52.653Z,3.33
2018-05-31T09:28:26.357Z,3.27
2018-05-31T09:31:00.213Z,3.73
2018-05-31T09:33:33.859Z,3.50
2018-05-31T09:36:07.580Z,3.70
2018-05-31T09:38:41.187Z,3.30
2018-05-31T09:41:14.881Z,3.10
2018-05-31T09:43:48.368Z,3.67
2018-05-31T09:46:22.057Z,3.50
2018-05-31T09:48:55.730Z,3.10
2018-05-31T09:51:29.289Z,4.10
2018-05-31T09:54:02.960Z,4.97
2018-05-31T09:56:36.696Z,3.27
2018-05-31T09:59:10.695Z,4.00
2018-05-31T10:01:44.256Z,5.00
2018-05-31T10:04:17.929Z,5.33
2018-05-31T10:06:51.478Z,3.90
2018-05-31T10:09:25.070Z,3.33
2018-05-31T10:11:58.736Z,3.67
2018-05-31T10:14:32.267Z,4.20
2018-05-31T10:17:05.926Z,4.23
2018-05-31T10:19:39.528Z,3.60
2018-05-31T10:22:13.037Z,3.93
2018-05-31T10:24:46.587Z,3.93
2018-05-31T10:27:20.316Z,4.33
2018-05-31T10:29:54.092Z,4.27
2018-05-31T10:32:27.669Z,4.40
2018-05-31T10:35:01.355Z,2.97
2018-05-31T10:37:35.145Z,2.57
2018-05-31T10:40:08.708Z,2.93
2018-05-31T10:42:42.528Z,3.10
2018-05-31T10:45:16.300Z,3.57
2018-05-31T10:47:49.872Z,3.10
2018-05-31T10:50:23.495Z,3.23
2018-05-31T10:52:57.000Z,2.80
2018-05-31T10:55:30.568Z,2.77
2018-05-31T10:58:04.112Z,3.17
2018-05-31T11:00:37.639Z,2.47
2018-05-31T11:03:11.466Z,2.30
2018-05-31T11:05:45.025Z,3.07
2018-05-31T11:08:18.794Z,2.90
2018-05-31T11:10:52.503Z,2.80
2018-05-31T11:13:26.104Z,2.50
2018-05-31T11:15:59.861Z,3.00
2018-05-31T11:18:33.565Z,3.03
2018-05-31T11:21:07.112Z,2.77
2018-05-31T11:23:40.690Z,3.17
2018-05-31T11:26:14.237Z,2.73
2018-05-31T11:28:47.743Z,3.43
2018-05-31T11:31:21.494Z,3.33
2018-05-31T11:33:55.619Z,3.70
2018-05-31T11:36:29.250Z,3.77
2018-05-31T11:39:02.820Z,3.90
2018-05-31T11:41:36.359Z,4.00
2018-05-31T11:44:09.943Z,3.80
2018-05-31T11:46:43.553Z,3.90
2018-05-31T11:49:17.275Z,4.30
2018-05-31T11:51:51.016Z,4.10
2018-05-31T11:54:24.812Z,4.20
2018-05-31T11:56:58.447Z,5.23
2018-05-31T11:59:31.992Z,4.93
2018-05-31T12:02:05.731Z,4.80
2018-05-31T12:04:39.531Z,5.13
2018-05-31T12:07:13.195Z,5.23
2018-05-31T12:09:46.835Z,4.67
2018-05-31T12:12:20.599Z,5.70
2018-05-31T12:14:54.192Z,6.10
2018-05-31T12:17:27.967Z,5.43
2018-05-31T12:20:01.347Z,5.33
2018-05-31T12:22:35.017Z,5.97
2018-05-31T12:25:08.679Z,4.77
2018-05-31T12:27:42.441Z,5.37
2018-05-31T12:30:15.969Z,5.80
2018-05-31T12:32:49.520Z,5.93
2018-05-31T12:35:23.270Z,5.80
2018-05-31T12:37:56.910Z,6.17
2018-05-31T12:40:30.536Z,5.43
2018-05-31T12:43:04.139Z,4.50
2018-05-31T12:45:37.791Z,6.97
2018-05-31T12:48:11.387Z,6.90
2018-05-31T12:50:44.954Z,7.33
2018-05-31T12:53:18.480Z,5.60
2018-05-31T12:55:52.147Z,5.33
2018-05-31T12:58:25.711Z,6.20
2018-05-31T13:00:59.356Z,4.97
2018-05-31T13:03:32.999Z,6.10
2018-05-31T13:06:06.628Z,5.10
2018-05-31T13:08:40.176Z,6.00
2018-05-31T13:11:13.948Z,5.63
2018-05-31T13:13:47.538Z,5.77
2018-05-31T13:16:21.304Z,5.20
2018-05-31T13:18:55.041Z,7.20
2018-05-31T13:21:28.686Z,5.73
2018-05-31T13:24:02.230Z,6.10
2018-05-31T13:26:35.797Z,4.87
2018-05-31T13:29:09.390Z,10.97
2018-05-31T13:31:42.880Z,6.20
2018-05-31T13:34:16.416Z,11.17
2018-05-31T13:36:50.119Z,5.20
2018-05-31T13:39:23.638Z,5.77
2018-05-31T13:41:57.280Z,5.47
2018-05-31T13:44:31.678Z,6.20
2018-05-31T13:47:05.376Z,5.13
2018-05-31T13:49:38.933Z,6.43
2018-05-31T13:52:12.783Z,4.83
2018-05-31T13:54:46.416Z,5.10
2018-05-31T13:57:20.137Z,5.10
2018-05-31T13:59:53.691Z,5.70
2018-05-31T14:02:27.164Z,5.20
2018-05-31T14:05:00.700Z,4.30
2018-05-31T14:07:34.351Z,5.27
2018-05-31T14:10:07.835Z,4.53
2018-05-31T14:12:41.584Z,4.73
2018-05-31T14:15:15.220Z,5.17
2018-05-31T14:17:48.972Z,4.77
2018-05-31T14:20:22.551Z,4.83
2018-05-31T14:22:56.143Z,4.93
2018-05-31T14:25:29.708Z,5.10
2018-05-31T14:28:03.400Z,5.00
2018-05-31T14:30:36.940Z,5.00
2018-05-31T14:33:10.708Z,4.57
2018-05-31T14:35:44.341Z,4.37
2018-05-31T14:38:18.205Z,5.03
2018-05-31T14:40:52.067Z,4.87
2018-05-31T14:43:25.653Z,4.20
2018-05-31T14:45:59.280Z,4.10
2018-05-31T14:48:32.931Z,4.73
2018-05-31T14:51:06.415Z,4.50
2018-05-31T14:53:40.140Z,4.87
2018-05-31T14:56:13.804Z,4.70
2018-05-31T14:58:47.562Z,4.50
2018-05-31T15:01:21.135Z,4.63
2018-05-31T15:03:54.855Z,4.87
2018-05-31T15:06:28.387Z,4.80
2018-05-31T15:09:02.012Z,4.73
2018-05-31T15:11:35.563Z,4.43
2018-05-31T15:14:09.172Z,4.40
2018-05-31T15:16:42.817Z,3.93
2018-05-31T15:19:16.410Z,3.70
2018-05-31T15:21:50.061Z,4.50
2018-05-31T15:24:23.631Z,3.83
2018-05-31T15:26:57.340Z,4.23
2018-05-31T15:29:30.920Z,3.50
2018-05-31T15:32:04.471Z,4.20
2018-05-31T15:34:38.067Z,3.97
2018-05-31T15:37:11.608Z,3.67
2018-05-31T15:39:45.416Z,3.70
2018-05-31T15:42:18.968Z,3.53
2018-05-31T15:44:52.698Z,3.40
2018-05-31T15:47:26.699Z,3.60
2018-05-31T15:50:00.395Z,3.90
2018-05-31T15:52:33.983Z,3.33
2018-05-31T15:55:07.736Z,3.87
2018-05-31T15:57:41.340Z,3.70
2018-05-31T16:00:15.021Z,3.67
2018-05-31T16:02:48.645Z,4.83
2018-05-31T16:05:22.340Z,3.90
2018-05-31T16:07:55.876Z,4.17
2018-05-31T16:10:29.452Z,3.87
2018-05-31T16:13:03.055Z,3.90
2018-05-31T16:15:36.834Z,4.17
2018-05-31T16:18:10.388Z,4.30
2018-05-31T16:20:44.116Z,3.93
2018-05-31T16:23:17.639Z,4.53
2018-05-31T16:25:51.295Z,3.67
2018-05-31T16:28:24.828Z,4.10
2018-05-31T16:30:58.371Z,3.80
2018-05-31T16:33:32.014Z,4.20
2018-05-31T16:36:05.689Z,4.20
2018-05-31T16:38:39.217Z,5.10
2018-05-31T16:41:12.964Z,5.43
2018-05-31T16:43:46.697Z,6.40
2018-05-31T16:46:20.300Z,7.40
2018-05-31T16:48:53.836Z,7.17
2018-05-31T16:51:27.604Z,7.20
2018-05-31T16:54:01.148Z,7.80
2018-05-31T16:56:34.643Z,7.33
2018-05-31T16:59:08.199Z,6.33
2018-05-31T17:01:41.963Z,8.47
2018-05-31T17:04:15.743Z,8.30
2018-05-31T17:06:49.515Z,6.83
2018-05-31T17:09:23.172Z,6.63
2018-05-31T17:11:56.652Z,7.07
2018-05-31T17:14:30.227Z,6.30
2018-05-31T17:17:03.839Z,6.47
2018-05-31T17:19:37.581Z,6.67
2018-05-31T17:22:11.087Z,7.03
2018-05-31T17:24:44.764Z,7.77
2018-05-31T17:27:18.396Z,6.50
2018-05-31T17:29:52.152Z,7.40
2018-05-31T17:32:25.700Z,7.13
2018-05-31T17:34:59.349Z,6.60
2018-05-31T17:37:32.948Z,5.80
2018-05-31T17:40:06.455Z,7.30
2018-05-31T17:42:40.170Z,6.53
2018-05-31T17:45:13.939Z,6.03
2018-05-31T17:47:47.706Z,5.70
2018-05-31T17:50:21.452Z,6.97
2018-05-31T17:52:54.943Z,7.97
2018-05-31T17:55:28.503Z,6.10
2018-05-31T17:58:02.008Z,6.57
2018-05-31T18:00:35.637Z,7.13
2018-05-31T18:03:09.388Z,7.30
2018-05-31T18:05:43.167Z,7.63
2018-05-31T18:08:16.812Z,8.97
2018-05-31T18:10:50.457Z,8.53
2018-05-31T18:13:24.032Z,9.23
2018-05-31T18:15:57.789Z,10.87
2018-05-31T18:18:31.544Z,10.83
2018-05-31T18:21:05.045Z,11.83
2018-05-31T18:23:38.624Z,12.50
2018-05-31T18:26:12.179Z,13.53
2018-05-31T18:28:45.656Z,11.47
2018-05-31T18:31:19.580Z,11.17
2018-05-31T18:33:53.140Z,12.80
2018-05-31T18:36:26.948Z,15.60
2018-05-31T18:39:00.752Z,16.27
2018-05-31T18:41:34.274Z,18.17
2018-05-31T18:44:07.808Z,18.87
2018-05-31T18:46:41.337Z,17.90
2018-05-31T18:49:15.112Z,18.43
2018-05-31T18:51:48.770Z,18.50
2018-05-31T18:54:22.547Z,17.60
2018-05-31T18:57:13.420Z,16.67
2018-05-31T18:59:47.164Z,16.17
2018-05-31T19:02:20.664Z,17.07
2018-05-31T19:04:54.184Z,14.77
2018-05-31T19:07:27.784Z,15.03
2018-05-31T19:10:01.568Z,14.53
2018-05-31T19:12:41.108Z,14.57
2018-05-31T19:15:21.632Z,13.40
2018-05-31T19:17:48.592Z,13.30
2018-05-31T19:20:22.224Z,13.67
2018-05-31T19:22:55.844Z,12.50
2018-05-31T19:25:29.456Z,10.73
2018-05-31T19:28:02.976Z,13.30
2018-05-31T19:30:42.108Z,12.40
2018-05-31T19:33:15.924Z,12.27
2018-05-31T19:35:55.048Z,11.70
2018-05-31T19:38:28.701Z,12.73
2018-05-31T19:41:02.380Z,12.50
2018-05-31T19:43:41.668Z,11.30
2018-05-31T19:46:38.715Z,10.93
2018-05-31T19:49:12.339Z,11.83
2018-05-31T19:51:51.563Z,11.53
2018-05-31T19:54:25.230Z,13.50
2018-05-31T20:00:03.728Z,11.57
2018-05-31T20:02:43.093Z,11.93
2018-05-31T20:05:16.887Z,12.07
2018-05-31T20:07:50.559Z,13.43
2018-05-31T20:10:24.083Z,14.37
2018-05-31T20:12:57.844Z,14.90
2018-05-31T20:15:31.372Z,11.63
2018-05-31T20:18:04.997Z,16.57
2018-05-31T20:20:38.532Z,15.93
2018-05-31T20:23:12.083Z,16.90
2018-05-31T20:25:45.591Z,18.73
2018-05-31T20:28:19.113Z,20.23
2018-05-31T20:30:52.748Z,18.93
2018-05-31T20:33:26.272Z,20.60
2018-05-31T20:35:59.804Z,19.00
2018-05-31T20:38:33.347Z,20.83
2018-05-31T20:41:06.836Z,22.17
2018-05-31T20:43:40.359Z,19.90
2018-05-31T20:46:13.944Z,20.70
2018-05-31T20:48:47.516Z,20.90
2018-05-31T20:51:21.299Z,23.43
2018-05-31T20:53:54.804Z,22.20
2018-05-31T20:56:28.328Z,21.97
2018-05-31T20:59:01.811Z,19.93
2018-05-31T21:01:35.566Z,19.13
2018-05-31T21:04:09.107Z,17.60
2018-05-31T21:06:43.026Z,19.47
2018-05-31T21:09:16.820Z,20.77
2018-05-31T21:11:50.329Z,24.83
2018-05-31T21:14:24.035Z,20.60
2018-05-31T21:16:57.818Z,22.20
2018-05-31T21:19:31.332Z,21.33
2018-05-31T21:22:04.998Z,22.67
2018-05-31T21:24:38.742Z,18.23
2018-05-31T21:27:12.297Z,23.67
2018-05-31T21:29:45.792Z,20.77
2018-05-31T21:32:19.364Z,19.93
2018-05-31T21:34:53.003Z,24.57
2018-05-31T21:37:26.564Z,24.73
2018-05-31T21:40:00.181Z,25.57
2018-05-31T21:42:33.819Z,22.23
2018-05-31T21:45:07.420Z,26.00
2018-05-31T21:47:41.003Z,26.67
2018-05-31T21:50:14.571Z,24.57
2018-05-31T21:52:48.115Z,24.93
2018-05-31T21:55:21.620Z,25.10
2018-05-31T21:57:55.267Z,28.37
2018-05-31T22:03:25.684Z,27.13
2018-05-31T22:05:59.287Z,27.07
2018-05-31T22:08:32.861Z,23.20
2018-05-31T22:11:06.415Z,25.37
2018-05-31T22:13:39.943Z,27.00
2018-05-31T22:16:13.539Z,27.27
2018-05-31T22:18:47.099Z,25.93
2018-05-31T22:21:20.891Z,27.97
2018-05-31T22:23:54.471Z,29.00
2018-05-31T22:26:28.101Z,29.20
2018-05-31T22:29:01.680Z,28.33
2018-05-31T22:31:35.304Z,28.57
2018-05-31T22:34:08.860Z,29.17
2018-05-31T22:36:42.432Z,27.57
2018-05-31T22:39:15.932Z,28.77
2018-05-31T22:41:49.488Z,28.70
2018-05-31T22:44:23.104Z,24.57
2018-05-31T22:46:56.862Z,28.70
2018-05-31T22:49:30.444Z,28.97
2018-05-31T22:52:04.163Z,27.20
2018-05-31T22:54:37.692Z,28.17
2018-05-31T22:57:11.419Z,24.43
2018-05-31T22:59:45.032Z,29.00
2018-05-31T23:02:18.820Z,26.80
2018-05-31T23:04:52.584Z,28.60
2018-05-31T23:07:26.256Z,28.67
2018-05-31T23:09:59.788Z,27.53
2018-05-31T23:12:33.477Z,29.07
2018-05-31T23:15:07.148Z,27.67
2018-05-31T23:17:40.719Z,26.50
2018-05-31T23:20:14.352Z,28.30
2018-05-31T23:22:47.872Z,26.90
2018-05-31T23:25:21.537Z,25.90
2018-05-31T23:27:55.319Z,25.77
2018-05-31T23:30:29.080Z,26.53
2018-05-31T23:33:02.681Z,26.90
2018-05-31T23:35:36.285Z,26.53
2018-05-31T23:38:09.735Z,27.33
2018-05-31T23:40:43.323Z,27.17
2018-05-31T23:43:16.956Z,28.50
2018-05-31T23:45:50.525Z,26.90
2018-05-31T23:48:24.173Z,25.67
2018-05-31T23:50:57.719Z,26.43
2018-05-31T23:53:31.471Z,26.47
2018-05-31T23:56:04.976Z,28.03
2018-05-31T23:58:38.584Z,27.73
